createdAt,value
2019-05-25T00:01:20.494Z,100189.66
2019-05-25T00:04:10.851Z,100188.59
2019-05-25T00:07:13.840Z,100185.25
2019-05-25T00:13:32.984Z,100188.63
2019-05-25T00:16:23.353Z,100189.00
2019-05-25T00:19:06.385Z,100189.27
2019-05-25T00:21:56.748Z,100185.95
2019-05-25T00:24:40.067Z,100192.94
2019-05-25T00:27:23.456Z,100193.09
2019-05-25T00:30:13.873Z,100192.33
2019-05-25T00:32:56.632Z,100192.89
2019-05-25T00:35:47.036Z,100187.86
2019-05-25T00:38:30.182Z,100191.53
2019-05-25T00:41:20.536Z,100185.55
2019-05-25T00:44:03.415Z,100189.37
2019-05-25T00:46:53.756Z,100190.95
2019-05-25T00:49:36.379Z,100192.44
2019-05-25T00:52:26.739Z,100194.41
2019-05-25T00:55:29.811Z,100190.34
2019-05-25T00:58:20.194Z,100187.95
2019-05-25T01:01:02.947Z,100190.44
2019-05-25T01:03:53.306Z,100184.95
2019-05-25T01:06:36.510Z,100192.58
2019-05-25T01:09:26.954Z,100189.81
2019-05-25T01:12:10.062Z,100189.20
2019-05-25T01:14:52.754Z,100186.51
2019-05-25T01:17:43.165Z,100188.63
2019-05-25T01:20:26.610Z,100188.20
2019-05-25T01:23:17.043Z,100185.87
2019-05-25T01:26:00.324Z,100187.52
2019-05-25T01:28:43.680Z,100189.23
2019-05-25T01:31:34.067Z,100185.46
2019-05-25T01:34:16.772Z,100184.08
2019-05-25T01:37:12.238Z,100187.72
2019-05-25T01:39:54.796Z,100186.83
2019-05-25T01:42:45.171Z,100188.75
2019-05-25T01:45:28.221Z,100191.17
2019-05-25T01:48:18.626Z,100191.31
2019-05-25T01:51:01.837Z,100196.83
2019-05-25T01:53:52.194Z,100197.33
2019-05-25T01:56:34.748Z,100195.75
2019-05-25T01:59:25.140Z,100203.61
2019-05-25T02:02:08.364Z,100203.30
2019-05-25T02:04:58.750Z,100207.72
2019-05-25T02:07:42.128Z,100206.08
2019-05-25T02:10:32.516Z,100206.16
2019-05-25T02:13:15.804Z,100202.67
2019-05-25T02:16:06.253Z,100207.58
2019-05-25T02:18:49.063Z,100213.77
2019-05-25T02:21:39.444Z,100206.37
2019-05-25T02:24:42.009Z,100209.09
2019-05-25T02:27:25.356Z,100217.92
2019-05-25T02:30:36.191Z,100206.51
2019-05-25T02:33:19.278Z,100212.42
2019-05-25T02:36:09.660Z,100216.06
2019-05-25T02:38:52.869Z,100219.25
2019-05-25T02:41:43.266Z,100224.66
2019-05-25T02:44:33.648Z,100226.93
2019-05-25T02:47:36.913Z,100221.42
2019-05-25T02:50:27.546Z,100228.56
2019-05-25T02:53:29.987Z,100228.62
2019-05-25T02:56:20.348Z,100229.56
2019-05-25T02:59:03.149Z,100229.16
2019-05-25T03:01:53.541Z,100226.29
2019-05-25T03:04:36.113Z,100228.07
2019-05-25T03:07:46.946Z,100229.93
2019-05-25T03:10:30.684Z,100226.97
2019-05-25T03:13:21.175Z,100229.23
2019-05-25T03:16:04.282Z,100229.38
2019-05-25T03:18:54.681Z,100229.47
2019-05-25T03:21:38.292Z,100239.47
2019-05-25T03:24:28.656Z,100240.79
2019-05-25T03:34:05.682Z,100241.55
2019-05-25T03:36:56.068Z,100246.38
2019-05-25T03:39:39.149Z,100258.75
2019-05-25T03:42:29.509Z,100257.05
2019-05-25T03:45:12.543Z,100254.50
2019-05-25T03:48:02.945Z,100254.02
2019-05-25T03:50:46.019Z,100254.66
2019-05-25T03:53:36.442Z,100262.65
2019-05-25T03:56:21.465Z,100260.87
2019-05-25T03:59:11.562Z,100267.84
2019-05-25T04:01:54.739Z,100263.34
2019-05-25T04:04:45.107Z,100263.13
2019-05-25T04:07:27.975Z,100271.68
2019-05-25T04:10:18.331Z,100270.52
2019-05-25T04:13:01.618Z,100266.33
2019-05-25T04:15:52.027Z,100272.33
2019-05-25T04:18:35.320Z,100275.12
2019-05-25T04:21:25.730Z,100271.56
2019-05-25T04:24:10.712Z,100273.12
2019-05-25T04:27:01.053Z,100272.03
2019-05-25T04:29:44.098Z,100273.56
2019-05-25T04:32:34.466Z,100284.26
2019-05-25T04:35:17.559Z,100285.35
2019-05-25T04:38:07.945Z,100292.95
2019-05-25T04:40:50.512Z,100285.35
2019-05-25T04:43:40.877Z,100293.50
2019-05-25T04:46:24.202Z,100296.77
2019-05-25T04:49:14.580Z,100298.72
2019-05-25T04:51:57.323Z,100299.41
2019-05-25T04:54:47.750Z,100312.84
2019-05-25T04:57:31.251Z,100313.56
2019-05-25T05:00:21.687Z,100320.84
2019-05-25T05:03:04.859Z,100313.15
2019-05-25T05:05:55.248Z,100315.50
2019-05-25T05:08:38.711Z,100311.67
2019-05-25T05:11:29.290Z,100319.27
2019-05-25T05:14:12.742Z,100315.84
2019-05-25T05:17:03.357Z,100317.41
2019-05-25T05:19:46.301Z,100317.55
2019-05-25T05:22:36.650Z,100315.37
2019-05-25T05:25:19.406Z,100316.75
2019-05-25T05:28:02.230Z,100315.43
2019-05-25T05:30:52.623Z,100317.22
2019-05-25T05:33:35.259Z,100315.81
2019-05-25T05:40:21.257Z,100325.95
2019-05-25T05:43:05.327Z,100318.83
2019-05-25T05:46:16.320Z,100330.08
2019-05-25T05:48:59.752Z,100327.65
2019-05-25T05:52:29.973Z,100325.72
2019-05-25T05:55:13.228Z,100331.28
2019-05-25T05:58:03.625Z,100334.02
2019-05-25T06:00:47.207Z,100333.92
2019-05-25T06:03:37.634Z,100331.98
2019-05-25T06:06:41.148Z,100336.88
2019-05-25T06:09:31.553Z,100338.97
2019-05-25T06:12:14.136Z,100341.30
2019-05-25T06:15:05.109Z,100346.28
2019-05-25T06:17:47.860Z,100346.09
2019-05-25T06:20:38.291Z,100347.20
2019-05-25T06:23:21.491Z,100345.52
2019-05-25T06:26:11.905Z,100348.16
2019-05-25T06:28:55.484Z,100350.87
2019-05-25T06:31:45.892Z,100355.60
2019-05-25T06:34:29.190Z,100359.57
2019-05-25T06:37:19.597Z,100365.63
2019-05-25T06:40:02.886Z,100371.53
2019-05-25T06:42:53.274Z,100373.63
2019-05-25T06:45:36.999Z,100374.14
2019-05-25T06:48:27.479Z,100374.91
2019-05-25T06:51:17.881Z,100375.28
2019-05-25T06:54:20.548Z,100376.49
2019-05-25T06:57:10.968Z,100378.95
2019-05-25T06:59:53.918Z,100373.91
2019-05-25T07:02:44.436Z,100374.21
2019-05-25T07:05:47.869Z,100370.28
2019-05-25T07:08:38.271Z,100371.90
2019-05-25T07:11:21.411Z,100378.78
2019-05-25T07:14:11.815Z,100374.34
2019-05-25T07:16:54.410Z,100375.41
2019-05-25T07:19:44.787Z,100373.59
2019-05-25T07:22:27.940Z,100374.39
2019-05-25T07:25:20.430Z,100376.14
2019-05-25T07:28:23.339Z,100373.69
2019-05-25T07:31:06.827Z,100383.99
2019-05-25T07:33:57.217Z,100382.41
2019-05-25T07:36:39.746Z,100377.41
2019-05-25T07:39:30.170Z,100380.64
2019-05-25T07:42:13.098Z,100376.58
2019-05-25T07:45:03.896Z,100379.17
2019-05-25T07:47:47.118Z,100378.63
2019-05-25T07:50:37.513Z,100378.62
2019-05-25T07:53:20.221Z,100373.60
2019-05-25T07:56:10.679Z,100375.36
2019-05-25T07:58:53.335Z,100375.63
2019-05-25T08:01:43.763Z,100370.50
2019-05-25T08:04:27.196Z,100371.17
2019-05-25T08:07:17.619Z,100379.44
2019-05-25T08:10:19.235Z,100377.07
2019-05-25T08:13:09.643Z,100384.11
2019-05-25T08:15:53.150Z,100379.48
2019-05-25T08:18:43.565Z,100385.50
2019-05-25T08:21:26.864Z,100386.48
2019-05-25T08:24:17.266Z,100388.42
2019-05-25T08:27:19.936Z,100383.41
2019-05-25T08:30:02.591Z,100389.87
2019-05-25T08:32:52.946Z,100395.45
2019-05-25T08:35:36.061Z,100394.58
2019-05-25T08:38:26.442Z,100399.30
2019-05-25T08:41:09.089Z,100395.59
2019-05-25T08:43:59.512Z,100390.98
2019-05-25T08:46:42.553Z,100386.27
2019-05-25T08:49:32.992Z,100382.23
2019-05-25T08:52:18.066Z,100388.60
2019-05-25T08:55:08.592Z,100386.55
2019-05-25T08:57:51.369Z,100387.36
2019-05-25T09:00:42.673Z,100386.92
2019-05-25T09:03:25.288Z,100389.17
2019-05-25T09:06:15.679Z,100389.14
2019-05-25T09:08:58.761Z,100385.10
2019-05-25T09:11:49.121Z,100381.69
2019-05-25T09:14:32.155Z,100385.64
2019-05-25T09:17:18.296Z,100382.87
2019-05-25T09:20:19.718Z,100385.00
2019-05-25T09:23:10.045Z,100390.44
2019-05-25T09:25:53.207Z,100385.83
2019-05-25T09:28:46.373Z,100388.68
2019-05-25T09:31:29.240Z,100388.97
2019-05-25T09:34:20.165Z,100384.30
2019-05-25T09:37:19.720Z,100387.32
2019-05-25T09:40:19.296Z,100383.73
2019-05-25T09:43:09.686Z,100384.44
2019-05-25T09:46:03.151Z,100383.66
2019-05-25T09:49:05.474Z,100392.69
2019-05-25T09:52:20.046Z,100382.30
2019-05-25T09:55:24.455Z,100380.20
2019-05-25T09:58:14.910Z,100377.92
2019-05-25T10:01:00.721Z,100376.13
2019-05-25T10:04:11.016Z,100372.13
2019-05-25T10:07:18.141Z,100373.27
2019-05-25T10:10:28.952Z,100378.27
2019-05-25T10:13:12.306Z,100375.16
2019-05-25T10:16:02.795Z,100381.30
2019-05-25T10:18:45.878Z,100388.03
2019-05-25T10:21:36.243Z,100383.91
2019-05-25T10:24:19.742Z,100390.22
2019-05-25T10:27:10.139Z,100387.58
2019-05-25T10:29:52.763Z,100387.70
2019-05-25T10:32:43.225Z,100389.27
2019-05-25T10:35:26.388Z,100394.81
2019-05-25T10:38:16.792Z,100391.52
2019-05-25T10:40:59.915Z,100386.97
2019-05-25T10:43:50.281Z,100380.42
2019-05-25T10:46:33.574Z,100375.93
2019-05-25T10:49:24.087Z,100376.58
2019-05-25T10:52:11.374Z,100377.42
2019-05-25T10:55:02.101Z,100376.45
2019-05-25T10:58:05.953Z,100374.47
2019-05-25T11:00:56.421Z,100377.55
2019-05-25T11:03:39.138Z,100376.03
2019-05-25T11:06:29.541Z,100378.48
2019-05-25T11:09:12.188Z,100376.41
2019-05-25T11:12:02.695Z,100373.45
2019-05-25T11:14:45.981Z,100374.90
2019-05-25T11:17:29.089Z,100368.63
2019-05-25T11:20:20.084Z,100365.28
2019-05-25T11:23:03.058Z,100361.38
2019-05-25T11:25:53.474Z,100360.25
2019-05-25T11:28:36.243Z,100360.03
2019-05-25T11:31:28.219Z,100367.15
2019-05-25T11:34:18.634Z,100368.42
2019-05-25T11:37:01.385Z,100366.87
2019-05-25T11:39:51.784Z,100364.96
2019-05-25T11:42:35.267Z,100366.27
2019-05-25T11:45:25.765Z,100368.19
2019-05-25T11:48:09.198Z,100366.70
2019-05-25T11:50:59.608Z,100370.09
2019-05-25T11:54:02.959Z,100358.95
2019-05-25T11:56:53.367Z,100361.39
2019-05-25T11:59:36.470Z,100361.93
2019-05-25T12:02:26.865Z,100356.59
2019-05-25T12:05:10.259Z,100356.93
2019-05-25T12:08:00.702Z,100355.75
2019-05-25T12:10:44.353Z,100354.48
2019-05-25T12:13:34.913Z,100350.08
2019-05-25T12:16:20.561Z,100349.34
2019-05-25T12:22:21.206Z,100344.69
2019-05-25T12:25:12.053Z,100342.88
2019-05-25T12:27:54.662Z,100338.77
2019-05-25T12:30:45.067Z,100343.16
2019-05-25T12:33:47.841Z,100345.20
2019-05-25T12:36:38.420Z,100343.48
2019-05-25T12:39:21.571Z,100345.33
2019-05-25T12:42:11.962Z,100335.63
2019-05-25T12:44:55.485Z,100336.19
2019-05-25T12:47:45.843Z,100338.39
2019-05-25T12:50:29.191Z,100329.59
2019-05-25T12:53:19.563Z,100332.00
2019-05-25T12:56:02.203Z,100326.83
2019-05-25T13:01:55.617Z,100319.59
2019-05-25T13:04:45.981Z,100319.48
2019-05-25T13:07:29.020Z,100322.47
2019-05-25T13:13:15.936Z,100316.73
2019-05-25T13:15:58.518Z,100318.13
2019-05-25T13:19:01.273Z,100317.81
2019-05-25T13:21:53.517Z,100312.75
2019-05-25T13:24:43.988Z,100312.71
2019-05-25T13:27:26.654Z,100316.59
2019-05-25T13:30:37.504Z,100312.72
2019-05-25T13:33:22.635Z,100304.02
2019-05-25T13:36:32.108Z,100305.42
2019-05-25T13:39:15.516Z,100305.63
2019-05-25T13:42:06.034Z,100305.08
2019-05-25T13:44:48.789Z,100302.43
2019-05-25T13:47:39.268Z,100302.50
2019-05-25T13:50:22.212Z,100299.53
2019-05-25T13:53:12.606Z,100294.94
2019-05-25T13:55:57.623Z,100307.22
2019-05-25T13:58:48.031Z,100301.88
2019-05-25T14:01:50.991Z,100300.69
2019-05-25T14:04:41.475Z,100301.35
2019-05-25T14:07:24.101Z,100302.24
2019-05-25T14:10:33.340Z,100294.99
2019-05-25T14:13:16.464Z,100293.07
2019-05-25T14:16:07.644Z,100293.24
2019-05-25T14:19:11.057Z,100292.44
2019-05-25T14:22:01.556Z,100287.16
2019-05-25T14:24:44.145Z,100284.14
2019-05-25T14:27:34.533Z,100288.88
2019-05-25T14:30:17.824Z,100280.41
2019-05-25T14:33:08.238Z,100285.91
2019-05-25T14:35:51.648Z,100280.38
2019-05-25T14:38:42.078Z,100267.97
2019-05-25T14:41:25.854Z,100279.81
2019-05-25T14:44:16.252Z,100264.89
2019-05-25T14:46:59.469Z,100270.84
2019-05-25T14:49:49.860Z,100270.82
2019-05-25T14:52:32.395Z,100266.41
2019-05-25T14:55:22.771Z,100254.16
2019-05-25T14:58:05.291Z,100259.61
2019-05-25T15:00:55.660Z,100262.80
2019-05-25T15:03:38.679Z,100259.33
2019-05-25T15:06:29.107Z,100262.22
2019-05-25T15:09:12.632Z,100255.86
2019-05-25T15:12:02.995Z,100263.76
2019-05-25T15:14:45.661Z,100257.53
2019-05-25T15:17:37.475Z,100258.62
2019-05-25T15:20:41.096Z,100255.33
2019-05-25T15:23:31.468Z,100248.78
2019-05-25T15:26:16.582Z,100241.21
2019-05-25T15:28:59.288Z,100252.23
2019-05-25T15:31:49.670Z,100258.86
2019-05-25T15:34:33.045Z,100252.57
2019-05-25T15:37:23.425Z,100254.09
2019-05-25T15:40:08.406Z,100246.84
2019-05-25T15:42:58.763Z,100244.46
2019-05-25T15:45:41.394Z,100250.05
2019-05-25T15:48:31.751Z,100251.86
2019-05-25T15:51:14.915Z,100254.71
2019-05-25T15:54:10.135Z,100249.94
2019-05-25T15:57:09.725Z,100252.84
2019-05-25T16:00:00.105Z,100254.06
2019-05-25T16:02:43.531Z,100252.04
2019-05-25T16:05:33.905Z,100240.74
2019-05-25T16:08:17.401Z,100239.34
2019-05-25T16:11:07.797Z,100240.54
2019-05-25T16:13:51.056Z,100237.20
2019-05-25T16:16:41.471Z,100239.51
2019-05-25T16:19:24.632Z,100234.72
2019-05-25T16:22:08.126Z,100233.37
2019-05-25T16:24:58.535Z,100233.69
2019-05-25T16:28:01.853Z,100227.09
2019-05-25T16:30:52.245Z,100230.86
2019-05-25T16:33:35.321Z,100230.52
2019-05-25T16:36:25.679Z,100226.84
2019-05-25T16:39:16.075Z,100222.72
2019-05-25T16:41:59.060Z,100223.05
2019-05-25T16:44:49.507Z,100220.94
2019-05-25T16:47:32.789Z,100211.86
2019-05-25T16:50:23.226Z,100227.17
2019-05-25T16:53:26.627Z,100224.41
2019-05-25T16:56:16.956Z,100224.70
2019-05-25T16:59:00.313Z,100217.16
2019-05-25T17:01:50.713Z,100218.00
2019-05-25T17:04:33.252Z,100229.96
2019-05-25T17:07:23.651Z,100216.02
2019-05-25T17:10:07.253Z,100222.41
2019-05-25T17:12:57.604Z,100225.34
2019-05-25T17:15:40.590Z,100220.47
2019-05-25T17:18:30.979Z,100218.36
2019-05-25T17:21:13.659Z,100215.80
2019-05-25T17:24:04.080Z,100214.09
2019-05-25T17:26:47.538Z,100216.02
2019-05-25T17:29:30.443Z,100217.84
2019-05-25T17:32:20.820Z,100214.61
2019-05-25T17:35:04.732Z,100215.31
2019-05-25T17:37:55.101Z,100226.09
2019-05-25T17:40:37.907Z,100224.41
2019-05-25T17:43:28.315Z,100231.80
2019-05-25T17:46:11.727Z,100230.25
2019-05-25T17:49:02.092Z,100226.95
2019-05-25T17:51:44.660Z,100233.29
2019-05-25T17:54:35.039Z,100233.14
2019-05-25T17:57:17.714Z,100225.85
2019-05-25T18:03:36.902Z,100237.22
2019-05-25T18:06:27.249Z,100241.98
2019-05-25T18:09:10.102Z,100243.38
2019-05-25T18:12:00.559Z,100246.08
2019-05-25T18:14:43.296Z,100240.63
2019-05-25T18:17:33.685Z,100245.27
2019-05-25T18:20:16.383Z,100249.37
2019-05-25T18:22:59.024Z,100253.18
2019-05-25T18:25:49.362Z,100245.94
2019-05-25T18:28:32.371Z,100246.84
2019-05-25T18:31:23.045Z,100242.36
2019-05-25T18:34:21.186Z,100244.45
2019-05-25T18:36:58.114Z,100244.94
2019-05-25T18:39:41.573Z,100241.27
2019-05-25T18:42:31.970Z,100245.17
2019-05-25T18:45:14.801Z,100242.11
2019-05-25T18:48:05.454Z,100242.60
2019-05-25T18:50:55.887Z,100241.89
2019-05-25T18:53:39.303Z,100239.70
2019-05-25T18:56:29.675Z,100236.81
2019-05-25T18:59:12.563Z,100236.48
2019-05-25T19:02:02.982Z,100232.63
2019-05-25T19:04:58.670Z,100239.02
2019-05-25T19:07:38.060Z,100235.91
2019-05-25T19:10:20.653Z,100237.72
2019-05-25T19:13:11.145Z,100245.04
2019-05-25T19:15:54.086Z,100252.70
2019-05-25T19:18:44.504Z,100250.66
2019-05-25T19:21:27.549Z,100256.38
2019-05-25T19:24:17.906Z,100259.66
2019-05-25T19:27:01.353Z,100256.38
2019-05-25T19:29:51.787Z,100263.39
2019-05-25T19:32:34.758Z,100259.09
2019-05-25T19:35:25.134Z,100265.13
2019-05-25T19:38:08.549Z,100258.22
2019-05-25T19:40:58.933Z,100268.73
2019-05-25T19:43:42.414Z,100261.44
2019-05-25T19:46:32.791Z,100270.25
2019-05-25T19:49:16.126Z,100265.27
2019-05-25T19:55:35.953Z,100266.76
2019-05-25T19:58:26.340Z,100274.57
2019-05-25T20:01:09.695Z,100276.07
2019-05-25T20:04:00.092Z,100282.80
2019-05-25T20:06:45.555Z,100280.94
2019-05-25T20:09:35.961Z,100281.21
2019-05-25T20:12:38.937Z,100276.41
2019-05-25T20:15:30.224Z,100290.28
2019-05-25T20:18:13.329Z,100292.02
2019-05-25T20:21:04.635Z,100289.06
2019-05-25T20:23:47.309Z,100290.92
2019-05-25T20:26:37.668Z,100291.95
2019-05-25T20:29:21.029Z,100283.34
2019-05-25T20:32:11.416Z,100291.27
2019-05-25T20:34:54.771Z,100290.92
2019-05-25T20:37:45.803Z,100293.16
2019-05-25T20:40:48.587Z,100293.31
2019-05-25T20:43:39.053Z,100295.73
2019-05-25T20:46:21.823Z,100299.88
2019-05-25T20:49:12.262Z,100299.45
2019-05-25T20:51:55.478Z,100299.48
2019-05-25T20:54:45.930Z,100303.42
2019-05-25T20:57:28.831Z,100298.13
2019-05-25T21:00:24.244Z,100306.13
2019-05-25T21:03:07.254Z,100302.80
2019-05-25T21:05:57.622Z,100306.62
2019-05-25T21:08:40.731Z,100307.67
2019-05-25T21:11:31.115Z,100303.52
2019-05-25T21:14:13.904Z,100315.19
2019-05-25T21:17:04.262Z,100313.51
2019-05-25T21:19:46.835Z,100311.70
2019-05-25T21:22:37.320Z,100316.00
2019-05-25T21:25:20.224Z,100307.75
2019-05-25T21:28:10.633Z,100305.00
2019-05-25T21:31:00.985Z,100310.36
2019-05-25T21:34:03.532Z,100304.52
2019-05-25T21:36:53.878Z,100302.67
2019-05-25T21:39:44.235Z,100298.59
2019-05-25T21:42:27.274Z,100305.05
2019-05-25T21:48:46.468Z,100303.95
2019-05-25T21:51:36.856Z,100309.62
2019-05-25T21:54:20.271Z,100311.34
2019-05-25T21:57:10.628Z,100311.63
2019-05-25T21:59:53.540Z,100311.45
2019-05-25T22:02:44.104Z,100312.13
2019-05-25T22:05:30.427Z,100305.77
2019-05-25T22:08:18.732Z,100301.80
2019-05-25T22:11:01.397Z,100294.22
2019-05-25T22:13:51.760Z,100293.25
2019-05-25T22:16:34.871Z,100289.55
2019-05-25T22:19:25.260Z,100286.82
2019-05-25T22:22:16.878Z,100284.34
2019-05-25T22:25:00.390Z,100283.87
2019-05-25T22:27:51.017Z,100277.16
2019-05-25T22:30:34.151Z,100278.86
2019-05-25T22:33:17.474Z,100273.58
2019-05-25T22:36:07.888Z,100273.59
2019-05-25T22:38:50.699Z,100267.31
2019-05-25T22:41:41.110Z,100261.06
2019-05-25T22:44:24.467Z,100261.34
2019-05-25T22:47:14.835Z,100258.20
2019-05-25T22:49:57.663Z,100255.98
2019-05-25T22:52:48.050Z,100252.02
2019-05-25T22:55:30.979Z,100254.08
2019-05-25T22:58:21.362Z,100252.45
2019-05-25T23:01:04.521Z,100253.19
2019-05-25T23:03:54.940Z,100249.41
2019-05-25T23:06:37.508Z,100242.10
2019-05-25T23:09:27.921Z,100239.09
2019-05-25T23:12:11.198Z,100248.05
2019-05-25T23:15:01.614Z,100236.11
2019-05-25T23:17:44.403Z,100231.18
2019-05-25T23:20:36.722Z,100237.66
2019-05-25T23:23:39.703Z,100235.58
2019-05-25T23:26:30.084Z,100236.03
2019-05-25T23:29:13.326Z,100229.78
2019-05-25T23:32:03.717Z,100225.70
2019-05-25T23:34:46.291Z,100230.86
2019-05-25T23:37:36.685Z,100224.04
2019-05-25T23:40:19.387Z,100220.80
2019-05-25T23:43:09.752Z,100223.75
2019-05-25T23:45:52.385Z,100223.09
2019-05-25T23:48:42.740Z,100219.65
2019-05-25T23:51:25.511Z,100218.67
2019-05-25T23:54:15.884Z,100212.41
2019-05-25T23:57:06.282Z,100216.63
2019-05-25T23:59:56.694Z,100214.14
